createdAt,value
2019-04-06T00:02:24.194Z,28.90
2019-04-06T00:04:52.803Z,27.83
2019-04-06T00:07:21.460Z,28.47
2019-04-06T00:09:50.149Z,27.60
2019-04-06T00:12:18.789Z,27.57
2019-04-06T00:14:47.366Z,29.10
2019-04-06T00:17:16.038Z,31.73
2019-04-06T00:19:44.681Z,26.50
2019-04-06T00:22:13.345Z,29.47
2019-04-06T00:24:42.049Z,34.83
2019-04-06T00:27:10.743Z,31.47
2019-04-06T00:29:39.418Z,28.00
2019-04-06T00:32:12.557Z,31.43
2019-04-06T00:34:41.219Z,33.70
2019-04-06T00:37:09.912Z,29.90
2019-04-06T00:39:38.561Z,27.80
2019-04-06T00:42:07.144Z,31.80
2019-04-06T00:44:35.813Z,29.13
2019-04-06T00:47:04.462Z,28.63
2019-04-06T00:49:33.062Z,30.20
2019-04-06T00:52:01.751Z,29.93
2019-04-06T00:54:30.402Z,33.37
2019-04-06T00:56:59.180Z,30.57
2019-04-06T00:59:27.893Z,29.47
2019-04-06T01:01:56.479Z,27.90
2019-04-06T01:04:25.235Z,26.73
2019-04-06T01:06:53.905Z,31.43
2019-04-06T01:09:22.486Z,34.00
2019-04-06T01:11:51.134Z,31.97
2019-04-06T01:14:19.834Z,26.83
2019-04-06T01:16:48.517Z,30.40
2019-04-06T01:19:17.182Z,29.23
2019-04-06T01:21:45.868Z,32.17
2019-04-06T01:24:14.521Z,30.27
2019-04-06T01:26:43.164Z,35.87
2019-04-06T01:29:11.862Z,29.47
2019-04-06T01:31:40.600Z,34.10
2019-04-06T01:34:09.207Z,30.67
2019-04-06T01:36:37.931Z,36.17
2019-04-06T01:39:06.586Z,31.07
2019-04-06T01:41:35.169Z,35.73
2019-04-06T01:44:03.808Z,31.03
2019-04-06T01:46:32.389Z,32.53
2019-04-06T01:49:01.065Z,26.40
2019-04-06T01:51:29.684Z,29.23
2019-04-06T01:53:58.350Z,36.50
2019-04-06T01:56:27.013Z,32.13
2019-04-06T01:58:55.710Z,29.97
2019-04-06T02:01:38.170Z,33.93
2019-04-06T02:04:06.885Z,37.70
2019-04-06T02:06:35.535Z,32.70
2019-04-06T02:09:05.384Z,32.00
2019-04-06T02:11:34.087Z,25.03
2019-04-06T02:14:02.750Z,32.13
2019-04-06T02:16:31.306Z,36.37
2019-04-06T02:18:59.858Z,33.80
2019-04-06T02:21:28.447Z,37.03
2019-04-06T02:23:57.011Z,36.43
2019-04-06T02:26:30.925Z,29.07
2019-04-06T02:28:56.042Z,36.17
2019-04-06T02:31:42.589Z,37.10
2019-04-06T02:34:29.446Z,25.67
2019-04-06T02:37:21.399Z,31.97
2019-04-06T02:40:09.052Z,29.97
2019-04-06T02:42:47.773Z,32.03
2019-04-06T02:45:16.345Z,31.20
2019-04-06T02:47:44.992Z,31.87
2019-04-06T02:50:13.627Z,35.13
2019-04-06T02:52:42.270Z,34.90
2019-04-06T02:55:10.881Z,42.13
2019-04-06T02:57:39.558Z,32.80
2019-04-06T03:00:08.524Z,33.13
2019-04-06T03:02:37.168Z,31.73
2019-04-06T03:05:05.775Z,35.33
2019-04-06T03:07:34.451Z,29.43
2019-04-06T03:10:03.131Z,33.87
2019-04-06T03:12:31.704Z,35.70
2019-04-06T03:15:00.466Z,34.07
2019-04-06T03:17:29.129Z,32.10
2019-04-06T03:19:57.769Z,34.63
2019-04-06T03:22:26.411Z,30.83
2019-04-06T03:24:55.063Z,39.53
2019-04-06T03:27:23.715Z,33.47
2019-04-06T03:29:58.359Z,40.17
2019-04-06T03:32:22.637Z,38.87
2019-04-06T03:34:51.362Z,29.50
2019-04-06T03:37:19.931Z,31.03
2019-04-06T03:39:48.499Z,36.63
2019-04-06T03:42:17.093Z,33.50
2019-04-06T03:44:45.727Z,29.63
2019-04-06T03:47:14.304Z,33.77
2019-04-06T03:49:42.911Z,33.67
2019-04-06T03:52:11.561Z,33.53
2019-04-06T03:54:40.076Z,31.27
2019-04-06T03:57:16.320Z,36.03
2019-04-06T03:59:38.970Z,32.20
2019-04-06T04:02:07.506Z,33.93
2019-04-06T04:04:36.089Z,31.73
2019-04-06T04:07:04.635Z,34.87
2019-04-06T04:09:33.226Z,33.40
2019-04-06T04:12:01.790Z,33.80
2019-04-06T04:14:30.405Z,31.33
2019-04-06T04:16:59.002Z,42.60
2019-04-06T04:19:27.564Z,33.77
2019-04-06T04:21:56.142Z,32.90
2019-04-06T04:24:24.917Z,34.37
2019-04-06T04:26:53.430Z,33.63
2019-04-06T04:29:22.018Z,34.10
2019-04-06T04:31:50.582Z,33.93
2019-04-06T04:34:19.121Z,33.57
2019-04-06T04:36:47.763Z,37.80
2019-04-06T04:39:16.394Z,33.20
2019-04-06T04:41:44.968Z,37.83
2019-04-06T04:44:13.591Z,34.53
2019-04-06T04:46:42.175Z,29.00
2019-04-06T04:49:12.178Z,34.23
2019-04-06T04:51:40.722Z,34.47
2019-04-06T04:54:09.290Z,37.53
2019-04-06T04:56:37.836Z,33.77
2019-04-06T04:59:06.542Z,41.40
2019-04-06T05:01:35.118Z,33.93
2019-04-06T05:04:03.658Z,38.30
2019-04-06T05:06:32.205Z,37.67
2019-04-06T05:09:00.834Z,35.90
2019-04-06T05:11:29.362Z,35.43
2019-04-06T05:14:17.630Z,33.30
2019-04-06T05:16:46.181Z,44.13
2019-04-06T05:19:14.723Z,40.23
2019-04-06T05:21:43.297Z,45.67
2019-04-06T05:24:11.850Z,36.00
2019-04-06T05:26:40.383Z,41.80
2019-04-06T05:29:08.955Z,42.67
2019-04-06T05:31:37.513Z,44.40
2019-04-06T05:34:06.242Z,39.57
2019-04-06T05:36:34.798Z,38.30
2019-04-06T05:39:03.835Z,38.40
2019-04-06T05:41:32.374Z,42.60
2019-04-06T05:44:00.960Z,34.80
2019-04-06T05:46:29.493Z,40.53
2019-04-06T05:48:58.087Z,36.77
2019-04-06T05:51:26.663Z,39.87
2019-04-06T05:53:55.337Z,41.53
2019-04-06T05:56:23.840Z,37.70
2019-04-06T05:58:52.422Z,39.47
2019-04-06T06:01:20.979Z,44.07
2019-04-06T06:03:49.578Z,43.33
2019-04-06T06:06:18.175Z,37.73
2019-04-06T06:08:46.819Z,43.00
2019-04-06T06:11:15.395Z,39.17
2019-04-06T06:13:44.022Z,35.83
2019-04-06T06:16:12.722Z,37.87
2019-04-06T06:18:41.267Z,45.23
2019-04-06T06:21:10.139Z,48.03
2019-04-06T06:23:38.810Z,45.70
2019-04-06T06:26:07.353Z,47.07
2019-04-06T06:28:36.129Z,47.30
2019-04-06T06:31:04.876Z,48.87
2019-04-06T06:33:33.444Z,44.87
2019-04-06T06:36:01.990Z,48.43
2019-04-06T06:38:30.534Z,50.77
2019-04-06T06:40:59.117Z,49.53
2019-04-06T06:43:27.650Z,51.77
2019-04-06T06:45:56.235Z,49.50
2019-04-06T06:48:24.794Z,46.97
2019-04-06T06:50:53.365Z,47.43
2019-04-06T06:53:21.914Z,53.93
2019-04-06T06:55:53.360Z,40.20
2019-04-06T06:58:25.714Z,47.40
2019-04-06T07:00:52.025Z,53.80
2019-04-06T07:03:20.685Z,45.40
2019-04-06T07:05:49.295Z,54.87
2019-04-06T07:08:17.856Z,56.50
2019-04-06T07:10:46.393Z,57.40
2019-04-06T07:13:15.128Z,54.87
2019-04-06T07:15:44.240Z,56.40
2019-04-06T07:18:13.090Z,58.27
2019-04-06T07:20:41.727Z,52.23
2019-04-06T07:23:10.297Z,56.70
2019-04-06T07:25:38.969Z,55.47
2019-04-06T07:28:07.634Z,55.70
2019-04-06T07:30:36.411Z,57.23
2019-04-06T07:33:04.962Z,52.80
2019-04-06T07:35:33.510Z,60.10
2019-04-06T07:38:02.101Z,60.33
2019-04-06T07:40:30.883Z,53.30
2019-04-06T07:42:59.495Z,39.27
2019-04-06T07:45:28.093Z,55.17
2019-04-06T07:47:56.700Z,57.33
2019-04-06T07:50:25.453Z,51.13
2019-04-06T07:52:54.241Z,59.43
2019-04-06T07:55:22.963Z,58.33
2019-04-06T07:57:51.566Z,57.47
2019-04-06T08:00:20.137Z,58.07
2019-04-06T08:02:48.671Z,60.23
2019-04-06T08:05:17.234Z,57.37
2019-04-06T08:07:45.793Z,58.80
2019-04-06T08:10:14.385Z,62.73
2019-04-06T08:12:42.955Z,59.73
2019-04-06T08:15:11.550Z,57.90
2019-04-06T08:17:40.133Z,62.10
2019-04-06T08:20:08.708Z,57.97
2019-04-06T08:22:37.258Z,57.47
2019-04-06T08:25:05.903Z,54.60
2019-04-06T08:27:34.534Z,64.00
2019-04-06T08:30:03.191Z,64.03
2019-04-06T08:32:31.761Z,60.63
2019-04-06T08:35:00.362Z,58.43
2019-04-06T08:37:28.938Z,59.30
2019-04-06T08:39:57.561Z,60.67
2019-04-06T08:42:26.394Z,60.53
2019-04-06T08:44:55.057Z,57.77
2019-04-06T08:47:23.599Z,56.40
2019-04-06T08:49:52.137Z,56.13
2019-04-06T08:52:20.690Z,62.80
2019-04-06T08:54:49.310Z,60.83
2019-04-06T08:57:17.850Z,58.93
2019-04-06T08:59:46.434Z,59.70
2019-04-06T09:02:14.974Z,62.97
2019-04-06T09:04:43.581Z,62.40
2019-04-06T09:07:12.210Z,65.63
2019-04-06T09:09:40.844Z,70.10
2019-04-06T09:12:09.373Z,67.43
2019-04-06T09:14:37.983Z,69.10
2019-04-06T09:17:06.525Z,64.30
2019-04-06T09:19:35.127Z,66.33
2019-04-06T09:22:03.762Z,55.70
2019-04-06T09:24:32.480Z,63.77
2019-04-06T09:27:01.063Z,58.07
2019-04-06T09:29:29.615Z,58.37
2019-04-06T09:31:58.209Z,57.17
2019-04-06T09:34:26.822Z,55.20
2019-04-06T09:36:55.410Z,58.17
2019-04-06T09:39:24.001Z,61.37
2019-04-06T09:41:52.554Z,57.90
2019-04-06T09:44:34.574Z,52.67
2019-04-06T09:47:13.182Z,59.70
2019-04-06T09:49:54.787Z,56.70
2019-04-06T09:52:30.650Z,49.70
2019-04-06T09:55:18.478Z,57.23
2019-04-06T09:58:03.826Z,56.53
2019-04-06T10:00:43.211Z,48.10
2019-04-06T10:03:30.882Z,57.20
2019-04-06T10:06:21.125Z,52.27
2019-04-06T10:09:08.733Z,54.80
2019-04-06T10:12:04.563Z,56.37
2019-04-06T10:14:47.819Z,49.27
2019-04-06T10:17:43.210Z,48.03
2019-04-06T10:20:29.777Z,46.83
2019-04-06T10:23:15.641Z,46.30
2019-04-06T10:26:03.726Z,46.60
2019-04-06T10:28:53.343Z,52.70
2019-04-06T10:31:35.462Z,41.70
2019-04-06T10:34:26.222Z,46.13
2019-04-06T10:37:13.897Z,46.30
2019-04-06T10:39:48.162Z,49.37
2019-04-06T10:42:41.039Z,46.70
2019-04-06T10:45:27.201Z,51.10
2019-04-06T10:48:15.509Z,44.50
2019-04-06T10:51:09.386Z,37.93
2019-04-06T10:54:15.473Z,43.10
2019-04-06T10:56:54.951Z,39.10
2019-04-06T10:59:34.609Z,40.33
2019-04-06T11:02:28.281Z,43.70
2019-04-06T11:05:18.674Z,38.47
2019-04-06T11:08:02.098Z,47.67
2019-04-06T11:10:49.230Z,42.47
2019-04-06T11:13:31.818Z,42.87
2019-04-06T11:16:11.998Z,40.30
2019-04-06T11:18:55.712Z,43.57
2019-04-06T11:21:40.982Z,43.17
2019-04-06T11:24:19.234Z,33.90
2019-04-06T11:27:06.944Z,43.00
2019-04-06T11:29:55.046Z,34.93
2019-04-06T11:32:42.682Z,36.63
2019-04-06T11:35:21.365Z,42.90
2019-04-06T11:38:24.517Z,40.27
2019-04-06T11:41:00.452Z,39.00
2019-04-06T11:43:35.298Z,41.90
2019-04-06T11:46:31.217Z,38.93
2019-04-06T11:49:28.009Z,38.37
2019-04-06T11:52:14.475Z,35.10
2019-04-06T11:55:19.957Z,43.87
2019-04-06T11:58:19.818Z,35.00
2019-04-06T12:01:19.350Z,41.20
2019-04-06T12:03:56.338Z,35.50
2019-04-06T12:06:34.749Z,27.17
2019-04-06T12:09:34.389Z,33.90
2019-04-06T12:12:34.066Z,33.77
2019-04-06T12:15:07.986Z,41.13
2019-04-06T12:17:44.858Z,36.33
2019-04-06T12:30:36.957Z,32.83
2019-04-06T12:33:21.199Z,33.10
2019-04-06T12:36:01.780Z,39.33
2019-04-06T12:38:55.391Z,29.17
2019-04-06T12:41:46.176Z,32.60
2019-04-06T12:44:34.619Z,31.07
2019-04-06T12:47:22.197Z,32.23
2019-04-06T12:50:25.076Z,38.30
2019-04-06T12:53:12.025Z,30.53
2019-04-06T12:55:58.664Z,36.50
2019-04-06T12:58:49.768Z,38.90
2019-04-06T13:01:37.414Z,31.33
2019-04-06T13:04:30.736Z,39.33
2019-04-06T13:07:12.397Z,34.73
2019-04-06T13:09:58.519Z,29.07
2019-04-06T13:12:58.469Z,38.80
2019-04-06T13:15:44.990Z,39.60
2019-04-06T13:18:29.758Z,38.47
2019-04-06T13:21:20.475Z,45.60
2019-04-06T13:24:06.879Z,45.13
2019-04-06T13:26:45.132Z,43.40
2019-04-06T13:29:31.423Z,40.83
2019-04-06T13:32:09.708Z,43.43
2019-04-06T13:34:57.359Z,41.23
2019-04-06T13:37:50.535Z,38.20
2019-04-06T13:40:41.611Z,41.20
2019-04-06T13:43:29.752Z,28.00
2019-04-06T13:46:16.665Z,33.90
2019-04-06T13:49:10.029Z,29.93
2019-04-06T13:52:04.060Z,35.57
2019-04-06T13:54:54.417Z,40.03
2019-04-06T13:57:32.208Z,42.50
2019-04-06T14:00:19.437Z,42.63
2019-04-06T14:03:17.425Z,36.30
2019-04-06T14:05:58.077Z,41.73
2019-04-06T14:08:38.104Z,40.67
2019-04-06T14:11:40.971Z,40.30
2019-04-06T14:14:29.210Z,41.87
2019-04-06T14:17:07.565Z,37.60
2019-04-06T14:20:10.248Z,39.43
2019-04-06T14:22:49.027Z,34.17
2019-04-06T14:25:40.259Z,42.23
2019-04-06T14:28:27.225Z,46.57
2019-04-06T14:31:09.274Z,46.87
2019-04-06T14:33:45.666Z,46.50
2019-04-06T14:36:25.499Z,41.33
2019-04-06T14:39:11.838Z,37.93
2019-04-06T14:42:11.595Z,38.50
2019-04-06T14:44:53.942Z,43.87
2019-04-06T14:47:30.994Z,38.17
2019-04-06T14:50:13.425Z,34.87
2019-04-06T14:53:03.869Z,38.20
2019-04-06T14:55:40.481Z,45.40
2019-04-06T14:58:31.099Z,40.63
2019-04-06T15:01:09.499Z,39.43
2019-04-06T15:03:57.298Z,29.50
2019-04-06T15:06:43.716Z,37.60
2019-04-06T15:09:30.042Z,41.30
2019-04-06T15:12:14.032Z,38.97
2019-04-06T15:15:00.911Z,40.37
2019-04-06T15:17:55.314Z,36.60
2019-04-06T15:20:30.302Z,33.87
2019-04-06T15:23:09.779Z,32.47
2019-04-06T15:25:52.404Z,28.40
2019-04-06T15:28:45.910Z,38.27
2019-04-06T15:31:48.513Z,33.70
2019-04-06T15:34:28.223Z,31.07
2019-04-06T15:37:10.272Z,31.63
2019-04-06T15:39:56.375Z,33.43
2019-04-06T15:42:42.611Z,33.77
2019-04-06T15:45:29.266Z,34.60
2019-04-06T15:48:35.806Z,35.20
2019-04-06T15:50:59.395Z,33.50
2019-04-06T15:53:49.682Z,29.60
2019-04-06T15:56:33.133Z,36.20
2019-04-06T15:59:07.358Z,38.80
2019-04-06T16:02:01.454Z,30.23
2019-04-06T16:04:34.978Z,35.97
2019-04-06T16:07:30.909Z,33.17
2019-04-06T16:10:14.372Z,31.50
2019-04-06T16:13:00.690Z,36.97
2019-04-06T16:15:48.450Z,31.90
2019-04-06T16:18:41.890Z,26.33
2019-04-06T16:21:22.074Z,38.17
2019-04-06T16:24:06.868Z,30.27
2019-04-06T16:26:48.383Z,37.77
2019-04-06T16:29:23.798Z,36.40
2019-04-06T16:32:14.279Z,30.97
2019-04-06T16:34:52.425Z,38.50
2019-04-06T16:37:40.446Z,35.13
2019-04-06T16:40:28.254Z,38.60
2019-04-06T16:43:19.301Z,39.23
2019-04-06T16:46:25.446Z,35.10
2019-04-06T16:49:13.136Z,36.07
2019-04-06T16:52:08.774Z,39.57
2019-04-06T16:54:47.631Z,42.93
2019-04-06T16:57:39.690Z,42.77
2019-04-06T17:00:20.806Z,37.90
2019-04-06T17:03:07.720Z,37.80
2019-04-06T17:06:10.625Z,47.83
2019-04-06T17:08:54.517Z,46.53
2019-04-06T17:11:42.106Z,42.93
2019-04-06T17:14:27.500Z,50.87
2019-04-06T17:17:30.345Z,49.33
2019-04-06T17:20:06.806Z,41.87
2019-04-06T17:22:57.673Z,44.03
2019-04-06T17:25:40.794Z,51.60
2019-04-06T17:28:27.008Z,49.63
2019-04-06T17:31:01.707Z,47.97
2019-04-06T17:33:41.746Z,45.47
2019-04-06T17:36:18.459Z,42.73
2019-04-06T17:39:18.648Z,45.63
2019-04-06T17:42:09.225Z,45.43
2019-04-06T17:44:53.386Z,52.17
2019-04-06T17:47:41.009Z,46.70
2019-04-06T17:50:35.790Z,45.60
2019-04-06T17:53:23.444Z,48.10
2019-04-06T17:56:11.090Z,49.10
2019-04-06T17:59:05.599Z,47.60
2019-04-06T18:01:42.954Z,52.37
2019-04-06T18:04:26.123Z,49.33
2019-04-06T18:07:16.422Z,49.13
2019-04-06T18:09:56.648Z,54.70
2019-04-06T18:12:41.814Z,51.97
2019-04-06T18:15:10.401Z,58.23
2019-04-06T18:17:39.288Z,48.03
2019-04-06T18:20:08.529Z,52.03
2019-04-06T18:22:37.226Z,52.83
2019-04-06T18:25:05.784Z,56.03
2019-04-06T18:27:34.321Z,56.80
2019-04-06T18:30:03.294Z,57.63
2019-04-06T18:32:38.383Z,57.27
2019-04-06T18:35:07.710Z,55.27
2019-04-06T18:37:44.663Z,55.03
2019-04-06T18:40:20.775Z,53.90
2019-04-06T18:42:49.743Z,51.73
2019-04-06T18:45:18.346Z,55.70
2019-04-06T18:47:47.385Z,53.07
2019-04-06T18:50:16.169Z,51.27
2019-04-06T18:52:44.718Z,61.17
2019-04-06T18:55:13.294Z,53.37
2019-04-06T18:57:41.852Z,55.50
2019-04-06T19:00:11.845Z,64.13
2019-04-06T19:02:41.391Z,59.23
2019-04-06T19:05:10.073Z,59.30
2019-04-06T19:07:38.606Z,55.77
2019-04-06T19:10:26.337Z,61.90
2019-04-06T19:12:54.916Z,63.13
2019-04-06T19:15:23.897Z,54.50
2019-04-06T19:17:52.642Z,64.00
2019-04-06T19:20:21.304Z,56.53
2019-04-06T19:22:49.889Z,58.00
2019-04-06T19:25:18.478Z,61.57
2019-04-06T19:27:47.116Z,55.63
2019-04-06T19:30:15.789Z,53.73
2019-04-06T19:32:44.482Z,57.47
2019-04-06T19:35:13.253Z,58.77
2019-04-06T19:37:41.930Z,63.33
2019-04-06T19:40:10.559Z,60.87
2019-04-06T19:42:39.126Z,57.70
2019-04-06T19:45:07.779Z,58.60
2019-04-06T19:47:36.314Z,62.13
2019-04-06T19:50:05.977Z,63.63
2019-04-06T19:52:34.774Z,58.40
2019-04-06T19:55:03.421Z,61.60
2019-04-06T19:57:32.012Z,63.27
2019-04-06T20:00:01.108Z,57.37
2019-04-06T20:02:29.769Z,54.77
2019-04-06T20:04:58.334Z,65.47
2019-04-06T20:07:26.890Z,56.90
2019-04-06T20:09:55.690Z,63.63
2019-04-06T20:12:24.827Z,64.97
2019-04-06T20:14:53.916Z,65.10
2019-04-06T20:17:22.627Z,56.30
2019-04-06T20:19:51.229Z,64.50
2019-04-06T20:22:20.239Z,63.37
2019-04-06T20:24:49.039Z,61.87
2019-04-06T20:27:17.639Z,63.90
2019-04-06T20:29:46.198Z,61.47
2019-04-06T20:32:15.882Z,65.97
2019-04-06T20:34:44.587Z,71.57
2019-04-06T20:37:13.130Z,67.30
2019-04-06T20:39:41.699Z,71.23
2019-04-06T20:42:10.249Z,70.70
2019-04-06T20:44:39.262Z,67.40
2019-04-06T20:47:07.877Z,62.53
2019-04-06T20:49:36.430Z,63.87
2019-04-06T20:52:05.051Z,63.50
2019-04-06T20:54:33.637Z,71.77
2019-04-06T20:57:02.367Z,62.90
2019-04-06T20:59:31.590Z,65.10
2019-04-06T21:02:00.205Z,67.37
2019-04-06T21:04:29.147Z,67.47
2019-04-06T21:06:57.947Z,66.97
2019-04-06T21:09:26.824Z,73.20
2019-04-06T21:11:55.901Z,69.17
2019-04-06T21:14:25.057Z,68.00
2019-04-06T21:16:53.675Z,69.23
2019-04-06T21:19:22.217Z,70.53
2019-04-06T21:21:51.943Z,68.33
2019-04-06T21:24:20.758Z,64.40
2019-04-06T21:26:49.341Z,64.73
2019-04-06T21:29:18.009Z,70.50
2019-04-06T21:31:46.589Z,69.43
2019-04-06T21:34:16.796Z,65.40
2019-04-06T21:36:46.082Z,66.13
2019-04-06T21:39:17.671Z,65.07
2019-04-06T21:41:46.295Z,56.00
2019-04-06T21:44:14.842Z,64.00
2019-04-06T21:46:43.505Z,61.90
2019-04-06T21:49:12.274Z,64.67
2019-04-06T21:51:41.011Z,65.03
2019-04-06T21:54:09.698Z,64.17
2019-04-06T21:56:38.544Z,60.50
2019-04-06T21:59:07.751Z,67.93
2019-04-06T22:01:36.779Z,71.57
2019-04-06T22:04:05.490Z,64.50
2019-04-06T22:06:34.869Z,70.37
2019-04-06T22:09:04.654Z,69.63
2019-04-06T22:11:33.247Z,66.47
2019-04-06T22:14:01.910Z,66.77
2019-04-06T22:16:30.515Z,64.20
2019-04-06T22:18:59.254Z,71.30
2019-04-06T22:21:28.252Z,71.50
2019-04-06T22:23:57.035Z,58.10
2019-04-06T22:26:25.993Z,63.00
2019-04-06T22:28:54.692Z,67.10
2019-04-06T22:31:23.246Z,69.60
2019-04-06T22:33:52.459Z,70.67
2019-04-06T22:36:21.077Z,67.30
2019-04-06T22:38:49.659Z,71.37
2019-04-06T22:41:18.409Z,71.30
2019-04-06T22:43:46.979Z,69.23
2019-04-06T22:46:15.829Z,71.70
2019-04-06T22:48:44.470Z,66.37
2019-04-06T22:51:13.134Z,70.00
2019-04-06T22:53:41.855Z,68.77
2019-04-06T22:56:11.059Z,65.57
2019-04-06T22:58:39.959Z,71.87
2019-04-06T23:01:10.907Z,71.57
2019-04-06T23:03:57.382Z,69.63
2019-04-06T23:06:31.182Z,70.00
2019-04-06T23:08:59.816Z,71.80
2019-04-06T23:11:28.650Z,68.03
2019-04-06T23:13:57.295Z,73.00
2019-04-06T23:16:26.426Z,71.57
2019-04-06T23:18:55.134Z,69.83
2019-04-06T23:21:24.231Z,73.93
2019-04-06T23:23:52.978Z,68.87
2019-04-06T23:26:21.566Z,66.87
2019-04-06T23:28:50.272Z,73.13
2019-04-06T23:31:18.892Z,66.23
2019-04-06T23:33:47.478Z,68.57
2019-04-06T23:36:16.055Z,65.63
2019-04-06T23:38:44.620Z,72.63
2019-04-06T23:41:13.302Z,75.13
2019-04-06T23:43:41.909Z,62.57
2019-04-06T23:46:10.810Z,60.83
2019-04-06T23:48:40.001Z,71.60
2019-04-06T23:51:08.553Z,71.73
2019-04-06T23:53:37.304Z,67.77
2019-04-06T23:56:06.003Z,68.70
2019-04-06T23:58:35.213Z,68.17
